sensor_id;sensor_type;location;lat;lon;timestamp;pressure;altitude;pressure_sealevel;temperature;humidity
43745;BME280;29359;53.048;8.732;2023-03-18T00:00:33;100815.22;;;11.34;69.63
43745;BME280;29359;53.048;8.732;2023-03-18T00:02:36;100819.47;;;11.38;70.29
43745;BME280;29359;53.048;8.732;2023-03-18T00:04:39;100808.03;;;11.38;69.92
43745;BME280;29359;53.048;8.732;2023-03-18T00:06:41;100818.56;;;11.39;69.54
43745;BME280;29359;53.048;8.732;2023-03-18T00:08:45;100814.91;;;11.43;69.69
43745;BME280;29359;53.048;8.732;2023-03-18T00:10:49;100821.00;;;11.45;70.92
43745;BME280;29359;53.048;8.732;2023-03-18T00:12:51;100815.53;;;11.51;69.69
43745;BME280;29359;53.048;8.732;2023-03-18T00:14:53;100817.19;;;11.54;69.42
43745;BME280;29359;53.048;8.732;2023-03-18T00:16:55;100824.28;;;11.53;69.82
43745;BME280;29359;53.048;8.732;2023-03-18T00:18:56;100825.19;;;11.52;69.80
43745;BME280;29359;53.048;8.732;2023-03-18T00:20:58;100830.38;;;11.55;69.95
43745;BME280;29359;53.048;8.732;2023-03-18T00:23:01;100827.78;;;11.54;70.13
43745;BME280;29359;53.048;8.732;2023-03-18T00:25:04;100831.38;;;11.51;71.09
43745;BME280;29359;53.048;8.732;2023-03-18T00:27:07;100828.78;;;11.50;71.36
43745;BME280;29359;53.048;8.732;2023-03-18T00:29:09;100827.13;;;11.47;71.78
43745;BME280;29359;53.048;8.732;2023-03-18T00:31:11;100824.56;;;11.44;72.63
43745;BME280;29359;53.048;8.732;2023-03-18T00:33:14;100823.84;;;11.39;72.97
43745;BME280;29359;53.048;8.732;2023-03-18T00:35:16;100822.16;;;11.37;73.21
43745;BME280;29359;53.048;8.732;2023-03-18T00:37:18;100821.41;;;11.33;73.42
43745;BME280;29359;53.048;8.732;2023-03-18T00:39:30;100828.47;;;11.32;73.32
43745;BME280;29359;53.048;8.732;2023-03-18T00:41:33;100822.31;;;11.32;73.34
43745;BME280;29359;53.048;8.732;2023-03-18T00:43:39;100825.06;;;11.29;73.61
43745;BME280;29359;53.048;8.732;2023-03-18T00:45:49;100821.56;;;11.27;73.59
43745;BME280;29359;53.048;8.732;2023-03-18T00:47:50;100826.00;;;11.26;73.79
43745;BME280;29359;53.048;8.732;2023-03-18T00:49:53;100826.03;;;11.25;73.90
43745;BME280;29359;53.048;8.732;2023-03-18T00:51:54;100833.16;;;11.23;73.84
43745;BME280;29359;53.048;8.732;2023-03-18T00:53:58;100823.59;;;11.19;74.06
43745;BME280;29359;53.048;8.732;2023-03-18T00:56:00;100834.22;;;11.17;73.92
43745;BME280;29359;53.048;8.732;2023-03-18T00:58:02;100835.94;;;11.18;73.80
43745;BME280;29359;53.048;8.732;2023-03-18T01:00:05;100837.72;;;11.18;73.82
43745;BME280;29359;53.048;8.732;2023-03-18T01:02:07;100832.44;;;11.18;73.72
43745;BME280;29359;53.048;8.732;2023-03-18T01:04:09;100836.91;;;11.16;73.90
43745;BME280;29359;53.048;8.732;2023-03-18T01:06:13;100836.06;;;11.14;74.23
43745;BME280;29359;53.048;8.732;2023-03-18T01:08:16;100842.28;;;11.13;74.37
43745;BME280;29359;53.048;8.732;2023-03-18T01:10:17;100840.50;;;11.13;74.32
43745;BME280;29359;53.048;8.732;2023-03-18T01:12:19;100834.41;;;11.11;74.86
43745;BME280;29359;53.048;8.732;2023-03-18T01:14:21;100844.19;;;11.08;75.05
43745;BME280;29359;53.048;8.732;2023-03-18T01:16:23;100843.38;;;11.06;75.08
43745;BME280;29359;53.048;8.732;2023-03-18T01:18:24;100845.19;;;11.04;75.51
43745;BME280;29359;53.048;8.732;2023-03-18T01:20:26;100834.69;;;11.02;75.88
43745;BME280;29359;53.048;8.732;2023-03-18T01:22:27;100849.72;;;11.00;76.00
43745;BME280;29359;53.048;8.732;2023-03-18T01:24:29;100846.16;;;11.01;76.30
43745;BME280;29359;53.048;8.732;2023-03-18T01:26:31;100847.06;;;11.00;76.05
43745;BME280;29359;53.048;8.732;2023-03-18T01:28:33;100842.78;;;10.96;76.56
43745;BME280;29359;53.048;8.732;2023-03-18T01:30:35;100848.03;;;10.97;76.51
43745;BME280;29359;53.048;8.732;2023-03-18T01:32:36;100843.69;;;10.95;76.77
43745;BME280;29359;53.048;8.732;2023-03-18T01:34:38;100842.00;;;10.92;77.24
43745;BME280;29359;53.048;8.732;2023-03-18T01:36:42;100844.75;;;10.89;77.58
43745;BME280;29359;53.048;8.732;2023-03-18T01:38:44;100851.03;;;10.85;77.89
43745;BME280;29359;53.048;8.732;2023-03-18T01:40:46;100852.00;;;10.81;78.53
43745;BME280;29359;53.048;8.732;2023-03-18T01:42:55;100850.31;;;10.79;79.11
43745;BME280;29359;53.048;8.732;2023-03-18T01:45:13;100851.25;;;10.76;79.33
43745;BME280;29359;53.048;8.732;2023-03-18T01:47:19;100849.66;;;10.70;80.08
43745;BME280;29359;53.048;8.732;2023-03-18T01:49:30;100849.75;;;10.67;80.72
43745;BME280;29359;53.048;8.732;2023-03-18T01:51:35;100850.81;;;10.62;80.68
43745;BME280;29359;53.048;8.732;2023-03-18T01:53:41;100846.47;;;10.59;81.37
43745;BME280;29359;53.048;8.732;2023-03-18T01:55:46;100848.28;;;10.57;82.00
43745;BME280;29359;53.048;8.732;2023-03-18T01:57:49;100846.59;;;10.55;81.80
43745;BME280;29359;53.048;8.732;2023-03-18T01:59:52;100843.19;;;10.51;82.32
43745;BME280;29359;53.048;8.732;2023-03-18T02:02:03;100836.16;;;10.50;82.39
43745;BME280;29359;53.048;8.732;2023-03-18T02:04:07;100836.13;;;10.52;82.44
43745;BME280;29359;53.048;8.732;2023-03-18T02:06:11;100832.63;;;10.51;82.47
43745;BME280;29359;53.048;8.732;2023-03-18T02:08:12;100833.56;;;10.49;82.79
43745;BME280;29359;53.048;8.732;2023-03-18T02:10:25;100831.84;;;10.48;83.00
43745;BME280;29359;53.048;8.732;2023-03-18T02:12:35;100832.72;;;10.48;83.39
43745;BME280;29359;53.048;8.732;2023-03-18T02:14:38;100830.13;;;10.47;83.15
43745;BME280;29359;53.048;8.732;2023-03-18T02:16:47;100823.97;;;10.46;83.79
43745;BME280;29359;53.048;8.732;2023-03-18T02:18:57;100824.97;;;10.42;83.73
43745;BME280;29359;53.048;8.732;2023-03-18T02:23:43;100825.88;;;10.39;84.30
43745;BME280;29359;53.048;8.732;2023-03-18T02:28:00;100816.25;;;10.38;84.26
43745;BME280;29359;53.048;8.732;2023-03-18T02:30:09;100813.56;;;10.40;84.43
43745;BME280;29359;53.048;8.732;2023-03-18T02:32:16;100808.38;;;10.37;84.87
43745;BME280;29359;53.048;8.732;2023-03-18T02:34:21;100818.97;;;10.35;84.92
43745;BME280;29359;53.048;8.732;2023-03-18T02:36:26;100819.88;;;10.34;85.06
43745;BME280;29359;53.048;8.732;2023-03-18T02:38:29;100824.28;;;10.34;84.69
43745;BME280;29359;53.048;8.732;2023-03-18T02:40:36;100829.56;;;10.34;85.17
43745;BME280;29359;53.048;8.732;2023-03-18T02:42:38;100828.69;;;10.33;84.92
43745;BME280;29359;53.048;8.732;2023-03-18T02:44:43;100831.28;;;10.35;84.87
43745;BME280;29359;53.048;8.732;2023-03-18T02:48:48;100835.78;;;10.31;85.42
43745;BME280;29359;53.048;8.732;2023-03-18T02:50:50;100837.53;;;10.32;85.63
43745;BME280;29359;53.048;8.732;2023-03-18T02:52:52;100848.94;;;10.33;85.68
43745;BME280;29359;53.048;8.732;2023-03-18T02:54:54;100844.56;;;10.32;86.20
43745;BME280;29359;53.048;8.732;2023-03-18T02:57:00;100842.78;;;10.32;85.58
43745;BME280;29359;53.048;8.732;2023-03-18T02:59:04;100837.44;;;10.35;86.07
43745;BME280;29359;53.048;8.732;2023-03-18T03:01:07;100838.31;;;10.36;85.46
43745;BME280;29359;53.048;8.732;2023-03-18T03:03:09;100848.84;;;10.36;85.58
43745;BME280;29359;53.048;8.732;2023-03-18T03:05:11;100850.63;;;10.35;85.75
43745;BME280;29359;53.048;8.732;2023-03-18T03:07:15;100862.00;;;10.37;85.67
43745;BME280;29359;53.048;8.732;2023-03-18T03:09:17;100862.91;;;10.36;85.95
43745;BME280;29359;53.048;8.732;2023-03-18T03:11:19;100872.56;;;10.37;86.34
43745;BME280;29359;53.048;8.732;2023-03-18T03:13:21;100868.19;;;10.36;85.76
43745;BME280;29359;53.048;8.732;2023-03-18T03:15:24;100847.91;;;10.38;85.64
43745;BME280;29359;53.048;8.732;2023-03-18T03:17:28;100854.91;;;10.41;85.77
43745;BME280;29359;53.048;8.732;2023-03-18T03:19:29;100850.44;;;10.43;85.82
43745;BME280;29359;53.048;8.732;2023-03-18T03:21:32;100832.84;;;10.44;85.78
43745;BME280;29359;53.048;8.732;2023-03-18T03:23:37;100844.31;;;10.43;85.59
43745;BME280;29359;53.048;8.732;2023-03-18T03:25:38;100851.31;;;10.44;86.17
43745;BME280;29359;53.048;8.732;2023-03-18T03:27:41;100853.06;;;10.45;86.06
43745;BME280;29359;53.048;8.732;2023-03-18T03:29:42;100858.28;;;10.46;85.57
43745;BME280;29359;53.048;8.732;2023-03-18T03:31:44;100862.63;;;10.49;85.95
43745;BME280;29359;53.048;8.732;2023-03-18T03:33:46;100866.13;;;10.49;85.55
43745;BME280;29359;53.048;8.732;2023-03-18T03:35:49;100863.44;;;10.51;85.51
43745;BME280;29359;53.048;8.732;2023-03-18T03:37:51;100856.41;;;10.50;85.32
43745;BME280;29359;53.048;8.732;2023-03-18T03:39:53;100859.88;;;10.52;85.45
43745;BME280;29359;53.048;8.732;2023-03-18T03:41:55;100863.41;;;10.52;85.27
43745;BME280;29359;53.048;8.732;2023-03-18T03:43:59;100861.66;;;10.51;85.29
43745;BME280;29359;53.048;8.732;2023-03-18T03:46:01;100866.97;;;10.50;85.25
43745;BME280;29359;53.048;8.732;2023-03-18T03:48:04;100865.25;;;10.49;85.87
43745;BME280;29359;53.048;8.732;2023-03-18T03:50:09;100870.56;;;10.47;85.75
43745;BME280;29359;53.048;8.732;2023-03-18T03:52:13;100880.25;;;10.47;85.78
43745;BME280;29359;53.048;8.732;2023-03-18T03:54:14;100880.22;;;10.48;85.69
43745;BME280;29359;53.048;8.732;2023-03-18T03:56:17;100880.22;;;10.48;85.49
43745;BME280;29359;53.048;8.732;2023-03-18T03:58:19;100878.41;;;10.50;85.95
43745;BME280;29359;53.048;8.732;2023-03-18T04:00:23;100876.63;;;10.51;85.73
43745;BME280;29359;53.048;8.732;2023-03-18T04:02:24;100881.94;;;10.49;85.94
43745;BME280;29359;53.048;8.732;2023-03-18T04:04:28;100879.28;;;10.51;85.74
43745;BME280;29359;53.048;8.732;2023-03-18T04:06:29;100874.03;;;10.49;85.79
43745;BME280;29359;53.048;8.732;2023-03-18T04:08:31;100874.94;;;10.48;85.37
43745;BME280;29359;53.048;8.732;2023-03-18T04:10:33;100874.91;;;10.50;85.30
43745;BME280;29359;53.048;8.732;2023-03-18T04:12:38;100879.34;;;10.48;85.88
43745;BME280;29359;53.048;8.732;2023-03-18T04:14:40;100880.22;;;10.48;85.83
43745;BME280;29359;53.048;8.732;2023-03-18T04:16:44;100882.88;;;10.48;85.94
43745;BME280;29359;53.048;8.732;2023-03-18T04:18:46;100880.31;;;10.45;85.76
43745;BME280;29359;53.048;8.732;2023-03-18T04:20:48;100882.94;;;10.45;86.48
43745;BME280;29359;53.048;8.732;2023-03-18T04:22:50;100884.72;;;10.45;86.37
43745;BME280;29359;53.048;8.732;2023-03-18T04:24:51;100883.91;;;10.43;86.10
43745;BME280;29359;53.048;8.732;2023-03-18T04:26:53;100887.41;;;10.43;86.17
43745;BME280;29359;53.048;8.732;2023-03-18T04:28:55;100889.13;;;10.44;85.74
43745;BME280;29359;53.048;8.732;2023-03-18T04:30:57;100890.09;;;10.42;86.44
43745;BME280;29359;53.048;8.732;2023-03-18T04:32:59;100889.22;;;10.39;86.55
43745;BME280;29359;53.048;8.732;2023-03-18T04:35:03;100895.38;;;10.40;86.15
43745;BME280;29359;53.048;8.732;2023-03-18T04:37:05;100896.28;;;10.39;86.02
43745;BME280;29359;53.048;8.732;2023-03-18T04:39:08;100893.69;;;10.37;85.87
43745;BME280;29359;53.048;8.732;2023-03-18T04:41:10;100898.09;;;10.37;86.14
43745;BME280;29359;53.048;8.732;2023-03-18T04:43:12;100901.59;;;10.37;86.37
43745;BME280;29359;53.048;8.732;2023-03-18T04:45:15;100902.50;;;10.36;85.98
43745;BME280;29359;53.048;8.732;2023-03-18T04:47:18;100909.50;;;10.37;86.34
43745;BME280;29359;53.048;8.732;2023-03-18T04:49:20;100913.06;;;10.36;86.57
43745;BME280;29359;53.048;8.732;2023-03-18T04:51:21;100913.94;;;10.37;86.78
43745;BME280;29359;53.048;8.732;2023-03-18T04:53:24;100917.38;;;10.39;86.14
43745;BME280;29359;53.048;8.732;2023-03-18T04:55:26;100916.47;;;10.40;86.50
43745;BME280;29359;53.048;8.732;2023-03-18T04:57:28;100912.97;;;10.41;86.39
43745;BME280;29359;53.048;8.732;2023-03-18T04:59:30;100911.19;;;10.40;86.27
43745;BME280;29359;53.048;8.732;2023-03-18T05:01:35;100906.88;;;10.37;85.96
43745;BME280;29359;53.048;8.732;2023-03-18T05:03:36;100906.81;;;10.41;86.08
43745;BME280;29359;53.048;8.732;2023-03-18T05:05:38;100905.97;;;10.38;86.56
43745;BME280;29359;53.048;8.732;2023-03-18T05:07:40;100906.88;;;10.37;86.14
43745;BME280;29359;53.048;8.732;2023-03-18T05:09:42;100913.09;;;10.35;86.35
43745;BME280;29359;53.048;8.732;2023-03-18T05:11:44;100911.38;;;10.34;86.25
43745;BME280;29359;53.048;8.732;2023-03-18T05:13:46;100909.72;;;10.30;86.12
43745;BME280;29359;53.048;8.732;2023-03-18T05:15:50;100924.75;;;10.26;85.92
43745;BME280;29359;53.048;8.732;2023-03-18T05:17:52;100930.19;;;10.20;86.17
43745;BME280;29359;53.048;8.732;2023-03-18T05:19:53;100919.69;;;10.17;86.29
43745;BME280;29359;53.048;8.732;2023-03-18T05:21:55;100923.31;;;10.13;87.22
43745;BME280;29359;53.048;8.732;2023-03-18T05:23:56;100924.22;;;10.12;87.10
43745;BME280;29359;53.048;8.732;2023-03-18T05:25:58;100930.44;;;10.10;86.76
43745;BME280;29359;53.048;8.732;2023-03-18T05:28:00;100924.34;;;10.07;87.05
43745;BME280;29359;53.048;8.732;2023-03-18T05:30:05;100917.31;;;10.06;87.52
43745;BME280;29359;53.048;8.732;2023-03-18T05:32:08;100917.34;;;10.05;87.37
43745;BME280;29359;53.048;8.732;2023-03-18T05:34:11;100920.91;;;10.04;87.12
43745;BME280;29359;53.048;8.732;2023-03-18T05:36:14;100920.91;;;10.04;87.68
43745;BME280;29359;53.048;8.732;2023-03-18T05:38:18;100920.00;;;10.05;87.73
43745;BME280;29359;53.048;8.732;2023-03-18T05:40:22;100915.59;;;10.05;87.96
43745;BME280;29359;53.048;8.732;2023-03-18T05:42:24;100916.47;;;10.06;87.59
43745;BME280;29359;53.048;8.732;2023-03-18T05:44:26;100914.69;;;10.06;88.14
43745;BME280;29359;53.048;8.732;2023-03-18T05:46:28;100912.03;;;10.06;88.11
43745;BME280;29359;53.048;8.732;2023-03-18T05:48:31;100915.56;;;10.07;87.52
43745;BME280;29359;53.048;8.732;2023-03-18T05:50:37;100924.28;;;10.09;87.87
43745;BME280;29359;53.048;8.732;2023-03-18T05:52:40;100934.88;;;10.07;87.76
43745;BME280;29359;53.048;8.732;2023-03-18T05:54:42;100937.47;;;10.09;88.30
43745;BME280;29359;53.048;8.732;2023-03-18T05:56:45;100937.47;;;10.09;88.13
43745;BME280;29359;53.048;8.732;2023-03-18T05:58:47;100947.13;;;10.10;87.60
43745;BME280;29359;53.048;8.732;2023-03-18T06:00:48;100952.38;;;10.12;88.01
43745;BME280;29359;53.048;8.732;2023-03-18T06:02:51;100950.56;;;10.14;87.78
43745;BME280;29359;53.048;8.732;2023-03-18T06:04:53;100954.94;;;10.15;88.20
43745;BME280;29359;53.048;8.732;2023-03-18T06:06:54;100960.19;;;10.15;87.53
43745;BME280;29359;53.048;8.732;2023-03-18T06:08:59;100956.69;;;10.14;88.17
43745;BME280;29359;53.048;8.732;2023-03-18T06:11:01;100957.53;;;10.16;88.38
43745;BME280;29359;53.048;8.732;2023-03-18T06:13:05;100953.97;;;10.17;87.89
43745;BME280;29359;53.048;8.732;2023-03-18T06:15:08;100961.91;;;10.17;87.45
43745;BME280;29359;53.048;8.732;2023-03-18T06:17:10;100960.09;;;10.19;87.58
43745;BME280;29359;53.048;8.732;2023-03-18T06:19:12;100963.59;;;10.20;87.84
43745;BME280;29359;53.048;8.732;2023-03-18T06:21:14;100963.56;;;10.23;87.81
43745;BME280;29359;53.048;8.732;2023-03-18T06:23:18;100959.97;;;10.25;87.46
43745;BME280;29359;53.048;8.732;2023-03-18T06:25:20;100963.47;;;10.26;87.34
43745;BME280;29359;53.048;8.732;2023-03-18T06:27:22;100974.03;;;10.26;87.34
43745;BME280;29359;53.048;8.732;2023-03-18T06:29:27;100967.88;;;10.25;87.84
43745;BME280;29359;53.048;8.732;2023-03-18T06:31:29;100970.53;;;10.25;87.61
43745;BME280;29359;53.048;8.732;2023-03-18T06:33:31;100974.91;;;10.26;87.84
43745;BME280;29359;53.048;8.732;2023-03-18T06:35:33;100984.53;;;10.27;88.13
43745;BME280;29359;53.048;8.732;2023-03-18T06:37:36;100985.38;;;10.29;87.78
43745;BME280;29359;53.048;8.732;2023-03-18T06:39:39;100992.34;;;10.32;87.84
43745;BME280;29359;53.048;8.732;2023-03-18T06:41:42;100990.56;;;10.32;88.31
43745;BME280;29359;53.048;8.732;2023-03-18T06:43:43;100991.41;;;10.34;88.30
43745;BME280;29359;53.048;8.732;2023-03-18T06:45:48;100996.63;;;10.36;88.66
43745;BME280;29359;53.048;8.732;2023-03-18T06:47:49;101003.66;;;10.37;88.99
43745;BME280;29359;53.048;8.732;2023-03-18T06:49:51;101001.91;;;10.36;89.24
43745;BME280;29359;53.048;8.732;2023-03-18T06:51:52;100998.41;;;10.35;89.45
43745;BME280;29359;53.048;8.732;2023-03-18T06:53:54;100999.28;;;10.36;90.10
43745;BME280;29359;53.048;8.732;2023-03-18T06:55:57;100996.63;;;10.36;91.08
43745;BME280;29359;53.048;8.732;2023-03-18T06:57:58;101001.88;;;10.37;90.74
43745;BME280;29359;53.048;8.732;2023-03-18T07:00:02;100994.88;;;10.36;91.30
43745;BME280;29359;53.048;8.732;2023-03-18T07:02:05;100995.78;;;10.35;91.88
43745;BME280;29359;53.048;8.732;2023-03-18T07:04:08;101008.94;;;10.37;91.92
43745;BME280;29359;53.048;8.732;2023-03-18T07:06:10;101008.09;;;10.35;92.66
43745;BME280;29359;53.048;8.732;2023-03-18T07:08:13;101015.16;;;10.34;93.02
43745;BME280;29359;53.048;8.732;2023-03-18T07:10:24;101029.25;;;10.33;93.26
43745;BME280;29359;53.048;8.732;2023-03-18T07:12:27;101028.38;;;10.33;93.52
43745;BME280;29359;53.048;8.732;2023-03-18T07:14:29;101030.13;;;10.34;93.71
43745;BME280;29359;53.048;8.732;2023-03-18T07:16:31;101027.41;;;10.37;93.95
43745;BME280;29359;53.048;8.732;2023-03-18T07:18:33;101025.59;;;10.41;94.05
43745;BME280;29359;53.048;8.732;2023-03-18T07:20:34;101029.94;;;10.43;94.14
43745;BME280;29359;53.048;8.732;2023-03-18T07:22:37;101035.16;;;10.45;93.92
43745;BME280;29359;53.048;8.732;2023-03-18T07:24:38;101042.09;;;10.49;93.58
43745;BME280;29359;53.048;8.732;2023-03-18T07:26:42;101042.03;;;10.52;93.42
43745;BME280;29359;53.048;8.732;2023-03-18T07:28:43;101041.13;;;10.53;93.26
43745;BME280;29359;53.048;8.732;2023-03-18T07:30:45;101041.91;;;10.56;93.54
43745;BME280;29359;53.048;8.732;2023-03-18T07:32:49;101048.94;;;10.57;92.98
43745;BME280;29359;53.048;8.732;2023-03-18T07:39:19;101054.91;;;10.64;92.82
43745;BME280;29359;53.048;8.732;2023-03-18T07:41:21;101063.72;;;10.64;92.50
43745;BME280;29359;53.048;8.732;2023-03-18T07:43:25;101063.75;;;10.63;92.71
43745;BME280;29359;53.048;8.732;2023-03-18T07:45:26;101068.97;;;10.64;92.29
43745;BME280;29359;53.048;8.732;2023-03-18T07:47:29;101070.69;;;10.67;92.18
43745;BME280;29359;53.048;8.732;2023-03-18T07:49:33;101066.19;;;10.70;91.79
43745;BME280;29359;53.048;8.732;2023-03-18T07:51:35;101066.16;;;10.72;91.59
43745;BME280;29359;53.048;8.732;2023-03-18T07:53:37;101070.53;;;10.73;91.51
43745;BME280;29359;53.048;8.732;2023-03-18T07:55:38;101074.00;;;10.75;91.09
43745;BME280;29359;53.048;8.732;2023-03-18T07:57:42;101067.78;;;10.78;90.98
43745;BME280;29359;53.048;8.732;2023-03-18T07:59:46;101073.00;;;10.79;90.75
43745;BME280;29359;53.048;8.732;2023-03-18T08:01:47;101073.84;;;10.81;90.50
43745;BME280;29359;53.048;8.732;2023-03-18T08:03:49;101074.66;;;10.83;90.28
43745;BME280;29359;53.048;8.732;2023-03-18T08:05:51;101080.78;;;10.87;90.17
43745;BME280;29359;53.048;8.732;2023-03-18T08:07:52;101078.84;;;10.93;90.04
43745;BME280;29359;53.048;8.732;2023-03-18T08:09:54;101091.97;;;10.96;89.92
43745;BME280;29359;53.048;8.732;2023-03-18T08:11:56;101089.19;;;11.01;89.43
43745;BME280;29359;53.048;8.732;2023-03-18T08:13:58;101097.00;;;11.06;89.33
43745;BME280;29359;53.048;8.732;2023-03-18T08:16:00;101096.06;;;11.08;89.11
43745;BME280;29359;53.048;8.732;2023-03-18T08:18:02;101091.56;;;11.12;88.73
43745;BME280;29359;53.048;8.732;2023-03-18T08:20:05;101102.00;;;11.16;88.82
43745;BME280;29359;53.048;8.732;2023-03-18T08:22:07;101103.69;;;11.19;88.40
43745;BME280;29359;53.048;8.732;2023-03-18T08:24:10;101105.38;;;11.21;88.67
43745;BME280;29359;53.048;8.732;2023-03-18T08:26:12;101105.31;;;11.24;88.83
43745;BME280;29359;53.048;8.732;2023-03-18T08:28:14;101109.66;;;11.27;88.34
43745;BME280;29359;53.048;8.732;2023-03-18T08:30:16;101116.69;;;11.28;87.85
43745;BME280;29359;53.048;8.732;2023-03-18T08:32:18;101120.13;;;11.31;87.70
43745;BME280;29359;53.048;8.732;2023-03-18T08:34:22;101119.19;;;11.34;87.45
43745;BME280;29359;53.048;8.732;2023-03-18T08:36:24;101121.78;;;11.36;87.15
43745;BME280;29359;53.048;8.732;2023-03-18T08:38:27;101119.91;;;11.39;87.46
43745;BME280;29359;53.048;8.732;2023-03-18T08:40:29;101122.47;;;11.42;87.49
43745;BME280;29359;53.048;8.732;2023-03-18T08:42:33;101121.53;;;11.45;87.46
43745;BME280;29359;53.048;8.732;2023-03-18T08:44:37;101127.63;;;11.47;87.32
43745;BME280;29359;53.048;8.732;2023-03-18T08:46:39;101124.03;;;11.49;87.02
43745;BME280;29359;53.048;8.732;2023-03-18T08:48:44;101124.88;;;11.51;86.74
43745;BME280;29359;53.048;8.732;2023-03-18T08:50:46;101128.41;;;11.50;86.74
43745;BME280;29359;53.048;8.732;2023-03-18T08:52:48;101127.56;;;11.50;86.79
43745;BME280;29359;53.048;8.732;2023-03-18T08:54:50;101131.06;;;11.50;86.51
43745;BME280;29359;53.048;8.732;2023-03-18T08:56:52;101132.88;;;11.48;86.55
43745;BME280;29359;53.048;8.732;2023-03-18T08:58:55;101127.63;;;11.47;86.35
43745;BME280;29359;53.048;8.732;2023-03-18T09:00:57;101137.31;;;11.48;86.57
43745;BME280;29359;53.048;8.732;2023-03-18T09:03:01;101139.06;;;11.47;86.79
43745;BME280;29359;53.048;8.732;2023-03-18T09:05:03;101144.28;;;11.50;87.05
43745;BME280;29359;53.048;8.732;2023-03-18T09:07:07;101143.28;;;11.54;86.75
43745;BME280;29359;53.048;8.732;2023-03-18T09:09:10;101144.94;;;11.58;86.94
43745;BME280;29359;53.048;8.732;2023-03-18T09:11:13;101146.50;;;11.65;86.98
43745;BME280;29359;53.048;8.732;2023-03-18T09:13:15;101136.66;;;11.72;87.09
43745;BME280;29359;53.048;8.732;2023-03-18T09:15:17;101140.88;;;11.79;87.07
43745;BME280;29359;53.048;8.732;2023-03-18T09:17:22;101135.41;;;11.85;86.75
43745;BME280;29359;53.048;8.732;2023-03-18T09:19:46;101143.22;;;11.90;86.17
43745;BME280;29359;53.048;8.732;2023-03-18T09:21:49;101141.41;;;11.92;85.62
43745;BME280;29359;53.048;8.732;2023-03-18T09:23:50;101145.69;;;11.96;85.26
43745;BME280;29359;53.048;8.732;2023-03-18T09:25:53;101137.66;;;11.99;85.37
43745;BME280;29359;53.048;8.732;2023-03-18T09:27:55;101140.16;;;12.04;85.17
43745;BME280;29359;53.048;8.732;2023-03-18T09:29:58;101148.78;;;12.10;84.81
43745;BME280;29359;53.048;8.732;2023-03-18T09:31:59;101151.34;;;12.13;84.71
43745;BME280;29359;53.048;8.732;2023-03-18T09:34:01;101154.75;;;12.18;84.80
43745;BME280;29359;53.048;8.732;2023-03-18T09:36:04;101158.09;;;12.25;84.42
43745;BME280;29359;53.048;8.732;2023-03-18T09:38:05;101150.78;;;12.33;84.36
43745;BME280;29359;53.048;8.732;2023-03-18T09:40:10;101155.94;;;12.38;83.88
43745;BME280;29359;53.048;8.732;2023-03-18T09:42:20;101155.63;;;12.47;83.70
43745;BME280;29359;53.048;8.732;2023-03-18T09:44:29;101157.13;;;12.55;83.42
43745;BME280;29359;53.048;8.732;2023-03-18T09:46:43;101154.28;;;12.63;83.22
43745;BME280;29359;53.048;8.732;2023-03-18T09:51:14;101167.16;;;12.74;82.16
43745;BME280;29359;53.048;8.732;2023-03-18T09:53:23;101168.72;;;12.81;82.05
43745;BME280;29359;53.048;8.732;2023-03-18T09:55:38;101159.69;;;12.86;81.79
43745;BME280;29359;53.048;8.732;2023-03-18T09:57:45;101157.84;;;12.88;81.10
43745;BME280;29359;53.048;8.732;2023-03-18T10:00:00;101151.53;;;12.93;81.17
43745;BME280;29359;53.048;8.732;2023-03-18T10:02:17;101166.31;;;13.00;81.69
43745;BME280;29359;53.048;8.732;2023-03-18T10:04:24;101169.50;;;13.11;81.55
43745;BME280;29359;53.048;8.732;2023-03-18T10:06:27;101168.31;;;13.21;80.94
43745;BME280;29359;53.048;8.732;2023-03-18T10:08:49;101166.00;;;13.37;81.33
43745;BME280;29359;53.048;8.732;2023-03-18T10:10:53;101166.13;;;13.59;81.05
43745;BME280;29359;53.048;8.732;2023-03-18T10:13:04;101158.50;;;13.74;78.66
43745;BME280;29359;53.048;8.732;2023-03-18T10:17:20;101172.84;;;13.94;77.70
43745;BME280;29359;53.048;8.732;2023-03-18T10:19:23;101171.88;;;13.96;77.40
43745;BME280;29359;53.048;8.732;2023-03-18T10:26:48;101180.28;;;14.07;76.26
43745;BME280;29359;53.048;8.732;2023-03-18T10:29:20;101176.59;;;14.11;76.24
43745;BME280;29359;53.048;8.732;2023-03-18T10:36:19;101195.88;;;14.17;75.52
43745;BME280;29359;53.048;8.732;2023-03-18T10:40:36;101198.94;;;14.06;75.63
43745;BME280;29359;53.048;8.732;2023-03-18T10:42:39;101195.38;;;14.07;76.16
43745;BME280;29359;53.048;8.732;2023-03-18T10:44:40;101195.13;;;14.13;76.69
43745;BME280;29359;53.048;8.732;2023-03-18T10:46:43;101200.28;;;14.18;75.72
43745;BME280;29359;53.048;8.732;2023-03-18T10:48:57;101205.28;;;14.25;75.62
43745;BME280;29359;53.048;8.732;2023-03-18T10:51:23;101203.31;;;14.30;74.92
43745;BME280;29359;53.048;8.732;2023-03-18T10:53:27;101200.66;;;14.32;74.94
43745;BME280;29359;53.048;8.732;2023-03-18T10:55:35;101199.66;;;14.34;75.21
43745;BME280;29359;53.048;8.732;2023-03-18T10:57:38;101203.88;;;14.40;74.99
43745;BME280;29359;53.048;8.732;2023-03-18T10:59:41;101199.47;;;14.39;74.58
43745;BME280;29359;53.048;8.732;2023-03-18T11:01:49;101208.31;;;14.39;75.41
43745;BME280;29359;53.048;8.732;2023-03-18T11:06:03;101197.59;;;14.42;74.79
43745;BME280;29359;53.048;8.732;2023-03-18T11:08:33;101209.09;;;14.43;75.02
43745;BME280;29359;53.048;8.732;2023-03-18T11:10:37;101204.66;;;14.43;75.11
43745;BME280;29359;53.048;8.732;2023-03-18T11:12:43;101199.44;;;14.40;74.34
43745;BME280;29359;53.048;8.732;2023-03-18T11:14:47;101204.09;;;14.34;74.72
43745;BME280;29359;53.048;8.732;2023-03-18T11:19:00;101195.09;;;14.38;75.35